createdAt,value
2022-09-10T00:01:33.292Z,22.00
2022-09-10T00:03:38.239Z,21.90
2022-09-10T00:05:43.836Z,21.90
2022-09-10T00:07:48.238Z,21.90
2022-09-10T00:09:52.916Z,21.90
2022-09-10T00:11:57.472Z,21.90
2022-09-10T00:14:05.000Z,21.90
2022-09-10T00:16:11.795Z,21.90
2022-09-10T00:18:18.107Z,21.90
2022-09-10T00:20:22.353Z,21.90
2022-09-10T00:22:26.890Z,21.80
2022-09-10T00:24:31.296Z,21.90
2022-09-10T00:26:39.493Z,21.70
2022-09-10T00:28:45.093Z,21.70
2022-09-10T00:30:53.279Z,21.70
2022-09-10T00:32:57.742Z,21.60
2022-09-10T00:35:02.115Z,21.50
2022-09-10T00:37:07.463Z,21.40
2022-09-10T00:39:14.685Z,21.20
2022-09-10T00:41:20.348Z,21.10
2022-09-10T00:43:25.181Z,20.80
2022-09-10T00:45:31.594Z,20.70
2022-09-10T00:47:41.034Z,20.70
2022-09-10T00:49:48.089Z,20.50
2022-09-10T00:51:55.103Z,20.30
2022-09-10T00:54:00.618Z,20.40
2022-09-10T00:56:06.046Z,20.40
2022-09-10T00:58:13.261Z,20.50
2022-09-10T01:00:18.555Z,20.40
2022-09-10T01:02:23.075Z,20.40
2022-09-10T01:04:29.893Z,20.30
2022-09-10T01:06:34.266Z,20.30
2022-09-10T01:08:38.646Z,20.30
2022-09-10T01:10:51.987Z,20.30
2022-09-10T01:13:13.925Z,20.30
2022-09-10T01:15:28.000Z,20.20
2022-09-10T01:17:40.438Z,20.20
2022-09-10T01:20:17.309Z,20.20
2022-09-10T01:22:30.728Z,20.20
2022-09-10T01:24:54.964Z,20.10
2022-09-10T01:27:32.374Z,20.10
2022-09-10T01:29:43.452Z,19.90
2022-09-10T01:31:53.320Z,20.10
2022-09-10T01:34:04.156Z,20.00
2022-09-10T01:36:14.289Z,20.10
2022-09-10T01:38:23.159Z,20.10
2022-09-10T01:40:31.356Z,20.20
2022-09-10T01:42:43.140Z,20.30
2022-09-10T01:44:50.428Z,20.20
2022-09-10T01:47:14.839Z,20.20
2022-09-10T01:49:31.091Z,20.30
2022-09-10T01:51:53.262Z,20.30
2022-09-10T01:54:11.668Z,20.30
2022-09-10T01:56:27.866Z,20.20
2022-09-10T01:58:37.169Z,20.10
2022-09-10T02:00:55.515Z,20.10
2022-09-10T02:03:03.035Z,20.10
2022-09-10T02:05:11.382Z,20.00
2022-09-10T02:07:17.202Z,20.10
2022-09-10T02:09:21.806Z,20.00
2022-09-10T02:11:26.220Z,19.90
2022-09-10T02:13:32.164Z,19.90
2022-09-10T02:15:56.805Z,19.90
2022-09-10T02:18:03.650Z,20.00
2022-09-10T02:20:13.708Z,20.00
2022-09-10T02:22:18.170Z,20.00
2022-09-10T02:24:22.843Z,20.00
2022-09-10T02:26:27.831Z,20.00
2022-09-10T02:28:32.667Z,20.00
2022-09-10T02:30:37.422Z,19.90
2022-09-10T02:32:43.174Z,20.00
2022-09-10T02:34:50.122Z,20.00
2022-09-10T02:36:54.660Z,19.90
2022-09-10T02:38:59.074Z,19.80
2022-09-10T02:41:04.598Z,19.80
2022-09-10T02:43:09.483Z,19.80
2022-09-10T02:45:16.898Z,19.90
2022-09-10T02:47:21.266Z,19.90
2022-09-10T02:49:28.382Z,19.90
2022-09-10T02:51:33.281Z,20.00
2022-09-10T02:53:37.992Z,20.00
2022-09-10T02:55:46.513Z,20.00
2022-09-10T02:57:51.304Z,19.90
2022-09-10T02:59:56.926Z,19.90
2022-09-10T03:02:02.074Z,19.90
2022-09-10T03:04:06.432Z,19.90
2022-09-10T03:06:13.003Z,19.90
2022-09-10T03:08:19.321Z,19.90
2022-09-10T03:10:25.518Z,20.00
2022-09-10T03:12:29.883Z,20.00
2022-09-10T03:14:34.247Z,20.10
2022-09-10T03:16:40.247Z,20.10
2022-09-10T03:18:45.490Z,20.10
2022-09-10T03:20:49.827Z,20.10
2022-09-10T03:22:55.713Z,20.10
2022-09-10T03:24:59.911Z,20.10
2022-09-10T03:27:04.410Z,20.10
2022-09-10T03:29:08.772Z,20.10
2022-09-10T03:31:16.700Z,20.10
2022-09-10T03:33:24.531Z,20.10
2022-09-10T03:35:32.254Z,20.20
2022-09-10T03:37:38.646Z,20.20
2022-09-10T03:39:44.794Z,20.20
2022-09-10T03:41:49.253Z,20.10
2022-09-10T03:43:53.606Z,20.10
2022-09-10T03:45:58.302Z,20.20
2022-09-10T03:48:03.215Z,20.10
2022-09-10T03:50:08.786Z,20.20
2022-09-10T03:52:14.053Z,20.20
2022-09-10T03:54:20.995Z,20.20
2022-09-10T03:56:27.111Z,20.30
2022-09-10T03:58:32.486Z,20.20
2022-09-10T04:00:37.856Z,20.20
2022-09-10T04:02:44.196Z,20.20
2022-09-10T04:04:50.196Z,20.30
2022-09-10T04:06:54.679Z,20.30
2022-09-10T04:09:01.416Z,20.20
2022-09-10T04:11:06.964Z,20.30
2022-09-10T04:13:12.830Z,20.30
2022-09-10T04:15:17.435Z,20.30
2022-09-10T04:17:22.155Z,20.30
2022-09-10T04:19:27.928Z,20.40
2022-09-10T04:21:33.091Z,20.40
2022-09-10T04:23:38.036Z,20.40
2022-09-10T04:25:43.963Z,20.40
2022-09-10T04:27:49.833Z,20.30
2022-09-10T04:29:55.609Z,20.20
2022-09-10T04:32:00.168Z,20.30
2022-09-10T04:34:07.997Z,20.30
2022-09-10T04:36:13.031Z,20.40
2022-09-10T04:38:18.924Z,20.30
2022-09-10T04:40:23.701Z,20.40
2022-09-10T04:42:28.493Z,20.40
2022-09-10T04:44:33.995Z,20.30
2022-09-10T04:46:42.009Z,20.10
2022-09-10T04:48:48.826Z,20.20
2022-09-10T04:51:15.260Z,20.20
2022-09-10T04:53:22.228Z,20.30
2022-09-10T04:55:27.852Z,20.20
2022-09-10T04:57:32.721Z,20.30
2022-09-10T04:59:38.158Z,20.30
2022-09-10T05:01:43.903Z,20.30
2022-09-10T05:03:48.316Z,20.20
2022-09-10T05:05:52.806Z,20.20
2022-09-10T05:07:57.140Z,20.30
2022-09-10T05:10:01.433Z,20.30
2022-09-10T05:12:07.817Z,20.40
2022-09-10T05:14:12.185Z,20.30
2022-09-10T05:16:16.778Z,20.30
2022-09-10T05:18:22.633Z,20.30
2022-09-10T05:20:27.878Z,20.30
2022-09-10T05:22:38.499Z,20.40
2022-09-10T05:24:44.726Z,20.50
2022-09-10T05:26:49.122Z,20.80
2022-09-10T05:28:55.103Z,21.00
2022-09-10T05:30:59.527Z,21.30
2022-09-10T05:33:06.001Z,21.60
2022-09-10T05:35:14.388Z,21.80
2022-09-10T05:37:22.337Z,22.10
2022-09-10T05:39:26.649Z,22.50
2022-09-10T05:41:31.273Z,22.80
2022-09-10T05:43:37.177Z,22.80
2022-09-10T05:45:41.440Z,23.00
2022-09-10T05:47:45.861Z,23.30
2022-09-10T05:49:55.394Z,23.60
2022-09-10T05:52:02.541Z,23.90
2022-09-10T05:54:08.359Z,23.90
2022-09-10T05:56:13.457Z,24.30
2022-09-10T05:58:19.652Z,24.30
2022-09-10T06:00:25.002Z,24.30
2022-09-10T06:02:36.514Z,24.40
2022-09-10T06:04:41.649Z,24.50
2022-09-10T06:06:47.971Z,24.60
2022-09-10T06:08:55.014Z,24.70
2022-09-10T06:11:10.706Z,24.90
2022-09-10T06:13:22.135Z,25.00
2022-09-10T06:15:27.461Z,25.10
2022-09-10T06:17:31.980Z,25.20
2022-09-10T06:19:36.812Z,25.50
2022-09-10T06:21:41.589Z,25.90
2022-09-10T06:23:47.048Z,26.10
2022-09-10T06:26:04.379Z,26.30
2022-09-10T06:28:10.511Z,26.50
2022-09-10T06:30:15.630Z,27.00
2022-09-10T06:32:24.166Z,27.10
2022-09-10T06:34:28.775Z,27.40
2022-09-10T06:36:34.026Z,27.50
2022-09-10T06:38:39.163Z,27.20
2022-09-10T06:40:54.579Z,27.00
2022-09-10T06:43:02.733Z,27.00
2022-09-10T06:45:40.276Z,27.10
2022-09-10T06:48:38.374Z,26.80
2022-09-10T06:50:31.868Z,26.70
2022-09-10T06:52:37.743Z,27.10
2022-09-10T06:54:44.834Z,27.50
2022-09-10T06:57:01.451Z,28.00
2022-09-10T06:59:09.235Z,28.60
2022-09-10T07:01:22.915Z,28.50
2022-09-10T07:03:31.346Z,28.40
2022-09-10T07:05:35.676Z,28.30
2022-09-10T07:07:41.001Z,28.20
2022-09-10T07:09:45.829Z,28.40
2022-09-10T07:11:53.260Z,28.40
2022-09-10T07:13:57.673Z,28.30
2022-09-10T07:16:08.680Z,27.60
2022-09-10T07:18:14.851Z,27.30
2022-09-10T07:20:19.696Z,27.20
2022-09-10T07:22:25.263Z,27.00
2022-09-10T07:24:29.397Z,26.90
2022-09-10T07:26:38.792Z,27.00
2022-09-10T07:28:43.801Z,26.90
2022-09-10T07:30:49.075Z,26.70
2022-09-10T07:32:55.782Z,26.80
2022-09-10T07:35:04.224Z,26.70
2022-09-10T07:37:08.324Z,27.20
2022-09-10T07:39:12.596Z,27.20
2022-09-10T07:41:18.722Z,27.50
2022-09-10T07:43:24.913Z,27.50
2022-09-10T07:45:32.019Z,27.90
2022-09-10T07:47:41.060Z,28.00
2022-09-10T07:49:46.850Z,27.90
2022-09-10T07:51:57.604Z,28.00
2022-09-10T07:54:06.160Z,27.60
2022-09-10T07:56:15.242Z,27.70
2022-09-10T07:58:19.370Z,27.70
2022-09-10T08:00:23.553Z,27.90
2022-09-10T08:02:33.140Z,27.70
2022-09-10T08:04:40.601Z,27.80
2022-09-10T08:06:51.333Z,27.60
2022-09-10T08:08:55.683Z,27.70
2022-09-10T08:11:11.210Z,28.00
2022-09-10T08:13:18.328Z,28.30
2022-09-10T08:15:23.502Z,28.50
2022-09-10T08:17:30.018Z,28.50
2022-09-10T08:19:34.498Z,28.90
2022-09-10T08:21:40.623Z,29.10
2022-09-10T08:23:51.073Z,29.10
2022-09-10T08:25:57.215Z,29.50
2022-09-10T08:28:02.732Z,29.80
2022-09-10T08:30:09.971Z,30.20
2022-09-10T08:32:15.483Z,30.20
2022-09-10T08:34:20.247Z,30.10
2022-09-10T08:36:30.559Z,30.20
2022-09-10T08:38:36.876Z,30.60
2022-09-10T08:40:44.804Z,31.00
2022-09-10T08:42:50.992Z,31.40
2022-09-10T08:45:04.405Z,31.40
2022-09-10T08:47:21.808Z,31.40
2022-09-10T08:49:35.337Z,30.80
2022-09-10T08:51:45.519Z,30.70
2022-09-10T08:53:59.975Z,30.70
2022-09-10T08:56:12.941Z,31.10
2022-09-10T08:58:22.361Z,31.10
2022-09-10T09:00:29.998Z,31.10
2022-09-10T09:02:49.349Z,31.20
2022-09-10T09:05:02.726Z,31.10
2022-09-10T09:07:15.424Z,31.30
2022-09-10T09:09:22.178Z,31.00
2022-09-10T09:11:37.319Z,31.00
2022-09-10T09:14:12.936Z,30.90
2022-09-10T09:16:34.992Z,30.70
2022-09-10T09:18:55.246Z,30.40
2022-09-10T09:21:07.055Z,30.70
2022-09-10T09:23:21.701Z,30.60
2022-09-10T09:25:34.838Z,30.90
2022-09-10T09:27:42.725Z,31.10
2022-09-10T09:29:53.280Z,31.30
2022-09-10T09:32:00.962Z,31.30
2022-09-10T09:34:13.189Z,31.00
2022-09-10T09:36:20.876Z,31.00
2022-09-10T09:38:28.034Z,31.00
2022-09-10T09:40:44.977Z,30.90
2022-09-10T09:42:56.208Z,31.10
2022-09-10T09:45:17.071Z,31.50
2022-09-10T09:47:21.328Z,31.60
2022-09-10T09:49:26.715Z,31.60
2022-09-10T09:51:35.590Z,31.70
2022-09-10T09:53:42.333Z,31.60
2022-09-10T09:55:53.797Z,31.50
2022-09-10T09:58:30.814Z,31.60
2022-09-10T10:00:37.872Z,31.50
2022-09-10T10:02:41.975Z,31.60
2022-09-10T10:04:56.916Z,31.80
2022-09-10T10:07:02.703Z,31.70
2022-09-10T10:09:08.364Z,31.70
2022-09-10T10:11:22.953Z,31.40
2022-09-10T10:13:38.440Z,31.70
2022-09-10T10:15:43.162Z,31.70
2022-09-10T10:17:47.567Z,31.80
2022-09-10T10:20:00.246Z,31.80
2022-09-10T10:22:25.686Z,31.70
2022-09-10T10:24:35.033Z,31.50
2022-09-10T10:26:40.982Z,31.50
2022-09-10T10:28:49.720Z,31.70
2022-09-10T10:30:56.212Z,31.90
2022-09-10T10:33:01.875Z,31.90
2022-09-10T10:35:27.106Z,32.00
2022-09-10T10:37:39.480Z,32.00
2022-09-10T10:40:07.431Z,32.10
2022-09-10T10:42:19.420Z,31.80
2022-09-10T10:44:40.744Z,31.80
2022-09-10T10:46:54.961Z,32.00
2022-09-10T10:49:10.609Z,31.90
2022-09-10T10:51:22.818Z,32.00
2022-09-10T10:53:39.175Z,32.10
2022-09-10T10:55:48.339Z,32.40
2022-09-10T10:58:10.593Z,32.30
2022-09-10T11:00:18.983Z,32.50
2022-09-10T11:02:31.113Z,32.50
2022-09-10T11:04:43.452Z,32.50
2022-09-10T11:06:53.633Z,32.50
2022-09-10T11:09:03.048Z,32.30
2022-09-10T11:11:10.453Z,31.90
2022-09-10T11:13:20.289Z,31.90
2022-09-10T11:15:33.359Z,31.80
2022-09-10T11:17:43.218Z,32.00
2022-09-10T11:20:17.163Z,32.30
2022-09-10T11:22:24.233Z,32.70
2022-09-10T11:24:31.376Z,32.50
2022-09-10T11:26:38.973Z,32.50
2022-09-10T11:28:56.329Z,32.50
2022-09-10T11:31:07.791Z,32.30
2022-09-10T11:33:18.962Z,32.50
2022-09-10T11:35:27.520Z,32.30
2022-09-10T11:37:45.206Z,32.30
2022-09-10T11:39:53.625Z,32.30
2022-09-10T11:42:00.744Z,32.30
2022-09-10T11:44:16.399Z,32.20
2022-09-10T11:46:26.136Z,32.40
2022-09-10T11:48:35.322Z,32.60
2022-09-10T11:50:45.752Z,32.50
2022-09-10T11:52:50.662Z,32.50
2022-09-10T11:54:55.875Z,32.20
2022-09-10T11:57:06.905Z,32.10
2022-09-10T11:59:24.505Z,32.30
2022-09-10T12:01:49.197Z,32.40
2022-09-10T12:04:30.898Z,32.30
2022-09-10T12:06:44.575Z,32.20
2022-09-10T12:09:01.004Z,32.10
2022-09-10T12:11:14.048Z,32.20
2022-09-10T12:13:18.610Z,32.20
2022-09-10T12:15:24.446Z,32.20
2022-09-10T12:17:33.795Z,32.10
2022-09-10T12:19:41.695Z,32.10
2022-09-10T12:21:51.222Z,32.10
2022-09-10T12:23:55.651Z,32.20
2022-09-10T12:26:01.428Z,32.20
2022-09-10T12:28:08.169Z,32.30
2022-09-10T12:31:01.056Z,32.20
2022-09-10T12:33:54.271Z,32.10
2022-09-10T12:35:58.560Z,32.10
2022-09-10T12:38:40.145Z,32.10
2022-09-10T12:40:49.640Z,32.00
2022-09-10T12:42:59.043Z,32.00
2022-09-10T12:45:03.440Z,31.90
2022-09-10T12:47:40.191Z,31.90
2022-09-10T12:49:49.774Z,32.00
2022-09-10T12:51:57.937Z,32.10
2022-09-10T12:54:26.048Z,32.10
2022-09-10T12:56:59.769Z,32.10
2022-09-10T12:59:20.274Z,31.90
2022-09-10T13:01:39.492Z,31.90
2022-09-10T13:03:54.822Z,31.70
2022-09-10T13:06:04.293Z,31.50
2022-09-10T13:08:21.385Z,31.40
2022-09-10T13:10:28.923Z,31.60
2022-09-10T13:12:37.776Z,31.90
2022-09-10T13:14:48.365Z,31.80
2022-09-10T13:16:52.917Z,31.90
2022-09-10T13:19:36.095Z,31.80
2022-09-10T13:21:54.982Z,31.90
2022-09-10T13:23:59.264Z,31.90
2022-09-10T13:26:38.529Z,32.00
2022-09-10T13:29:11.396Z,32.10
2022-09-10T13:31:22.496Z,32.00
2022-09-10T13:33:30.307Z,31.90
2022-09-10T13:36:02.166Z,31.90
2022-09-10T13:38:33.721Z,31.90
2022-09-10T13:41:03.277Z,32.00
2022-09-10T13:43:38.421Z,32.00
2022-09-10T13:45:48.433Z,32.00
2022-09-10T13:48:01.087Z,31.90
2022-09-10T13:50:14.506Z,31.90
2022-09-10T13:52:23.088Z,31.80
2022-09-10T13:54:35.772Z,31.70
2022-09-10T13:56:45.095Z,31.70
2022-09-10T13:58:51.780Z,31.80
2022-09-10T14:00:57.921Z,31.70
2022-09-10T14:03:02.759Z,31.70
2022-09-10T14:05:28.415Z,31.70
2022-09-10T14:07:32.922Z,31.60
2022-09-10T14:09:42.140Z,31.60
2022-09-10T14:11:47.018Z,31.60
2022-09-10T14:13:55.644Z,31.60
2022-09-10T14:16:02.606Z,31.70
2022-09-10T14:18:07.430Z,31.80
2022-09-10T14:20:20.085Z,31.80
2022-09-10T14:22:26.021Z,31.80
2022-09-10T14:24:33.783Z,31.60
2022-09-10T14:26:40.744Z,31.50
2022-09-10T14:28:53.057Z,31.40
2022-09-10T14:31:22.454Z,31.30
2022-09-10T14:33:33.676Z,31.20
2022-09-10T14:35:43.039Z,31.10
2022-09-10T14:37:47.572Z,31.20
2022-09-10T14:39:52.156Z,31.20
2022-09-10T14:42:27.352Z,31.30
2022-09-10T14:44:31.843Z,31.30
2022-09-10T14:46:51.454Z,31.30
2022-09-10T14:49:09.774Z,31.30
2022-09-10T14:51:17.755Z,31.30
2022-09-10T14:53:22.679Z,31.40
2022-09-10T14:55:28.411Z,31.20
2022-09-10T14:57:35.451Z,30.80
2022-09-10T14:59:42.117Z,30.80
2022-09-10T15:01:48.435Z,30.60
2022-09-10T15:03:52.892Z,30.40
2022-09-10T15:05:57.219Z,30.30
2022-09-10T15:08:01.390Z,30.20
2022-09-10T15:10:06.146Z,29.90
2022-09-10T15:12:15.221Z,29.80
2022-09-10T15:14:21.099Z,29.50
2022-09-10T15:16:25.465Z,29.20
2022-09-10T15:18:29.864Z,28.70
2022-09-10T15:20:34.030Z,28.70
2022-09-10T15:22:38.215Z,28.70
2022-09-10T15:25:05.508Z,28.60
2022-09-10T15:27:08.760Z,28.50
2022-09-10T15:29:14.467Z,28.20
2022-09-10T15:31:20.325Z,28.20
2022-09-10T15:33:24.765Z,28.20
2022-09-10T15:35:29.021Z,28.00
2022-09-10T15:37:33.317Z,28.10
2022-09-10T15:39:38.893Z,28.00
2022-09-10T15:41:44.575Z,27.90
2022-09-10T15:43:49.615Z,27.90
2022-09-10T15:45:53.826Z,27.90
2022-09-10T15:47:59.631Z,28.00
2022-09-10T15:50:04.860Z,28.00
2022-09-10T15:52:10.055Z,28.10
2022-09-10T15:54:14.808Z,28.10
2022-09-10T15:56:20.035Z,28.10
2022-09-10T15:58:25.867Z,28.10
2022-09-10T16:00:30.417Z,28.10
2022-09-10T16:02:34.982Z,28.00
2022-09-10T16:04:43.037Z,28.00
2022-09-10T16:06:47.584Z,27.90
2022-09-10T16:08:53.135Z,28.00
2022-09-10T16:10:57.335Z,28.00
2022-09-10T16:13:01.757Z,27.90
2022-09-10T16:15:06.672Z,27.80
2022-09-10T16:17:11.825Z,27.80
2022-09-10T16:19:16.361Z,27.60
2022-09-10T16:21:26.182Z,27.70
2022-09-10T16:23:30.424Z,27.60
2022-09-10T16:25:34.748Z,27.60
2022-09-10T16:27:43.012Z,27.50
2022-09-10T16:29:48.763Z,27.50
2022-09-10T16:31:53.686Z,27.50
2022-09-10T16:34:00.081Z,27.30
2022-09-10T16:36:05.916Z,26.90
2022-09-10T16:38:12.863Z,26.70
2022-09-10T16:40:19.408Z,26.70
2022-09-10T16:42:24.190Z,26.60
2022-09-10T16:44:28.892Z,26.60
2022-09-10T16:46:33.523Z,26.60
2022-09-10T16:48:39.963Z,26.60
2022-09-10T16:50:44.224Z,26.50
2022-09-10T16:52:49.345Z,26.40
2022-09-10T16:54:57.618Z,26.30
2022-09-10T16:57:02.205Z,26.10
2022-09-10T16:59:07.842Z,26.00
2022-09-10T17:01:12.043Z,26.00
2022-09-10T17:03:16.317Z,25.80
2022-09-10T17:05:20.829Z,25.60
2022-09-10T17:07:25.278Z,25.60
2022-09-10T17:09:29.407Z,25.50
2022-09-10T17:11:35.800Z,25.40
2022-09-10T17:13:40.211Z,25.40
2022-09-10T17:15:44.684Z,25.50
2022-09-10T17:17:49.391Z,25.40
2022-09-10T17:19:53.525Z,25.40
2022-09-10T17:21:57.942Z,25.40
2022-09-10T17:24:03.229Z,25.40
2022-09-10T17:26:08.766Z,25.50
2022-09-10T17:28:14.271Z,25.60
2022-09-10T17:30:18.631Z,25.60
2022-09-10T17:32:22.716Z,25.60
2022-09-10T17:34:28.202Z,25.60
2022-09-10T17:36:33.210Z,25.50
2022-09-10T17:38:37.942Z,25.50
2022-09-10T17:40:42.348Z,25.50
2022-09-10T17:42:46.617Z,25.50
2022-09-10T17:44:52.495Z,25.60
2022-09-10T17:46:56.634Z,25.60
2022-09-10T17:49:01.263Z,25.50
2022-09-10T17:51:07.322Z,25.50
2022-09-10T17:53:12.136Z,25.40
2022-09-10T17:55:16.310Z,25.40
2022-09-10T17:57:20.736Z,25.40
2022-09-10T17:59:25.400Z,25.30
2022-09-10T18:01:32.508Z,25.20
2022-09-10T18:03:38.294Z,25.20
2022-09-10T18:05:43.397Z,25.10
2022-09-10T18:07:47.916Z,25.00
2022-09-10T18:09:52.155Z,25.00
2022-09-10T18:11:56.861Z,24.90
2022-09-10T18:14:01.795Z,24.90
2022-09-10T18:16:07.491Z,24.90
2022-09-10T18:18:14.007Z,25.00
2022-09-10T18:20:18.347Z,25.00
2022-09-10T18:22:23.495Z,25.00
2022-09-10T18:24:28.272Z,24.90
2022-09-10T18:26:36.579Z,24.90
2022-09-10T18:28:41.034Z,24.80
2022-09-10T18:30:45.751Z,24.80
2022-09-10T18:32:54.951Z,24.80
2022-09-10T18:35:00.571Z,24.90
2022-09-10T18:37:05.784Z,24.90
2022-09-10T18:39:12.472Z,24.90
2022-09-10T18:41:22.153Z,25.00
2022-09-10T18:43:27.035Z,24.90
2022-09-10T18:45:31.136Z,25.00
2022-09-10T18:47:44.462Z,25.00
2022-09-10T18:49:49.308Z,25.00
2022-09-10T18:51:56.648Z,25.00
2022-09-10T18:54:02.311Z,25.00
2022-09-10T18:56:08.310Z,25.00
2022-09-10T18:58:12.535Z,25.00
2022-09-10T19:00:17.618Z,25.10
2022-09-10T19:02:21.766Z,25.10
2022-09-10T19:04:28.495Z,25.00
2022-09-10T19:06:35.534Z,25.00
2022-09-10T19:08:48.431Z,25.00
2022-09-10T19:10:54.507Z,25.00
2022-09-10T19:12:58.812Z,25.00
2022-09-10T19:15:03.119Z,25.00
2022-09-10T19:17:08.062Z,25.10
2022-09-10T19:19:18.556Z,25.20
2022-09-10T19:21:23.707Z,25.20
2022-09-10T19:23:28.009Z,25.20
2022-09-10T19:25:33.711Z,25.20
2022-09-10T19:27:37.934Z,25.20
2022-09-10T19:29:43.162Z,25.20
2022-09-10T19:31:49.648Z,25.20
2022-09-10T19:33:56.508Z,25.20
2022-09-10T19:36:03.126Z,25.20
2022-09-10T19:38:27.269Z,25.20
2022-09-10T19:40:33.523Z,25.00
2022-09-10T19:42:37.770Z,24.90
2022-09-10T19:44:43.628Z,24.90
2022-09-10T19:46:47.896Z,24.90
2022-09-10T19:48:53.308Z,24.90
2022-09-10T19:50:57.522Z,24.90
2022-09-10T19:53:01.672Z,25.00
2022-09-10T19:55:06.629Z,25.00
2022-09-10T19:57:12.341Z,24.90
2022-09-10T19:59:17.083Z,24.90
2022-09-10T20:01:23.643Z,24.90
2022-09-10T20:03:27.815Z,24.90
2022-09-10T20:05:34.475Z,24.90
2022-09-10T20:07:38.790Z,24.80
2022-09-10T20:09:43.150Z,24.80
2022-09-10T20:11:47.338Z,24.80
2022-09-10T20:13:56.293Z,24.70
2022-09-10T20:16:02.261Z,24.80
2022-09-10T20:18:06.488Z,24.80
2022-09-10T20:20:11.843Z,24.80
2022-09-10T20:22:16.138Z,24.70
2022-09-10T20:24:20.365Z,24.60
2022-09-10T20:26:26.169Z,24.60
2022-09-10T20:28:30.443Z,24.60
2022-09-10T20:30:36.782Z,24.50
2022-09-10T20:32:41.364Z,24.40
2022-09-10T20:34:45.664Z,24.40
2022-09-10T20:36:51.335Z,24.40
2022-09-10T20:38:56.751Z,24.20
2022-09-10T20:41:01.680Z,24.20
2022-09-10T20:43:05.784Z,24.20
2022-09-10T20:45:11.063Z,24.10
2022-09-10T20:47:17.035Z,24.20
2022-09-10T20:49:21.466Z,24.20
2022-09-10T20:51:25.572Z,24.00
2022-09-10T20:53:29.891Z,23.90
2022-09-10T20:55:34.787Z,23.80
2022-09-10T20:57:39.243Z,23.70
2022-09-10T20:59:44.213Z,23.70
2022-09-10T21:01:50.890Z,23.70
2022-09-10T21:03:59.500Z,23.70
2022-09-10T21:06:03.797Z,23.70
2022-09-10T21:08:08.188Z,23.70
2022-09-10T21:10:12.384Z,23.70
2022-09-10T21:12:16.814Z,23.80
2022-09-10T21:14:21.495Z,23.80
2022-09-10T21:16:28.247Z,23.80
2022-09-10T21:18:33.091Z,23.80
2022-09-10T21:20:38.875Z,23.80
2022-09-10T21:22:43.103Z,23.80
2022-09-10T21:24:47.294Z,23.70
2022-09-10T21:26:53.433Z,23.50
2022-09-10T21:28:58.751Z,23.30
2022-09-10T21:31:04.026Z,23.20
2022-09-10T21:33:08.217Z,23.10
2022-09-10T21:35:12.593Z,23.10
2022-09-10T21:37:18.421Z,23.10
2022-09-10T21:39:22.774Z,23.10
2022-09-10T21:41:31.360Z,23.00
2022-09-10T21:43:36.889Z,23.00
2022-09-10T21:45:41.059Z,22.90
2022-09-10T21:47:45.406Z,22.90
2022-09-10T21:49:49.794Z,22.90
2022-09-10T21:51:53.941Z,22.90
2022-09-10T21:54:00.570Z,23.00
2022-09-10T21:56:05.994Z,23.10
2022-09-10T21:58:10.111Z,23.10
2022-09-10T22:00:16.312Z,23.10
2022-09-10T22:02:23.873Z,23.00
2022-09-10T22:04:28.399Z,23.00
2022-09-10T22:06:41.176Z,23.00
2022-09-10T22:08:47.293Z,23.00
2022-09-10T22:10:53.074Z,23.10
2022-09-10T22:12:57.396Z,23.10
2022-09-10T22:15:01.509Z,23.10
2022-09-10T22:17:07.483Z,23.10
2022-09-10T22:19:15.023Z,23.10
2022-09-10T22:21:19.817Z,23.10
2022-09-10T22:23:23.991Z,23.10
2022-09-10T22:25:28.501Z,23.00
2022-09-10T22:27:34.334Z,23.00
2022-09-10T22:29:38.572Z,23.00
2022-09-10T22:31:42.935Z,23.00
2022-09-10T22:33:50.072Z,23.10
2022-09-10T22:35:55.452Z,23.10
2022-09-10T22:37:59.892Z,23.10
2022-09-10T22:40:04.785Z,23.00
2022-09-10T22:42:09.430Z,23.00
2022-09-10T22:44:15.227Z,22.80
2022-09-10T22:46:20.463Z,22.60
2022-09-10T22:48:24.748Z,22.50
2022-09-10T22:50:28.924Z,22.40
2022-09-10T22:52:34.299Z,22.40
2022-09-10T22:54:38.438Z,22.40
2022-09-10T22:56:44.588Z,22.30
2022-09-10T22:58:51.724Z,22.30
2022-09-10T23:00:57.341Z,22.40
2022-09-10T23:03:02.563Z,22.30
2022-09-10T23:05:07.590Z,22.30
2022-09-10T23:07:12.043Z,22.30
2022-09-10T23:09:17.507Z,22.20
2022-09-10T23:11:23.455Z,22.20
2022-09-10T23:13:27.802Z,22.30
2022-09-10T23:15:32.688Z,22.20
2022-09-10T23:17:38.657Z,22.10
2022-09-10T23:19:42.862Z,22.10
2022-09-10T23:21:49.006Z,22.10
2022-09-10T23:23:55.193Z,22.10
2022-09-10T23:26:05.241Z,22.10
2022-09-10T23:28:09.780Z,22.00
2022-09-10T23:30:16.280Z,22.00
2022-09-10T23:32:20.588Z,22.10
2022-09-10T23:34:26.769Z,22.10
2022-09-10T23:36:33.089Z,22.20
2022-09-10T23:38:37.494Z,22.30
2022-09-10T23:40:41.923Z,22.30
2022-09-10T23:42:46.118Z,22.40
2022-09-10T23:44:50.318Z,22.30
2022-09-10T23:46:55.614Z,22.30
2022-09-10T23:49:00.403Z,22.30
2022-09-10T23:51:07.823Z,22.30
2022-09-10T23:53:12.343Z,22.40
2022-09-10T23:55:17.170Z,22.40
2022-09-10T23:57:21.365Z,22.40
2022-09-10T23:59:25.655Z,22.40
